createdAt,value
2023-01-11T00:04:51.763Z,7.8
2023-01-11T00:14:51.844Z,7.9
2023-01-11T00:24:52.845Z,8
2023-01-11T00:44:54.069Z,8.4
2023-01-11T01:04:55.485Z,8.7
2023-01-11T01:14:56.501Z,8.8
2023-01-11T01:24:57.088Z,8.9
2023-01-11T01:34:57.567Z,9
2023-01-11T02:04:59.303Z,9.5
2023-01-11T02:15:00.050Z,9.5
2023-01-11T02:25:00.590Z,9.4
2023-01-11T02:35:00.819Z,9.4
2023-01-11T02:45:01.342Z,9.3
2023-01-11T02:55:01.853Z,9.2
2023-01-11T03:05:02.409Z,9.1
2023-01-11T03:15:02.652Z,9
2023-01-11T03:25:03.159Z,8.9
2023-01-11T03:35:03.603Z,8.8
2023-01-11T03:45:04.073Z,8.8
2023-01-11T03:55:04.413Z,8.8
2023-01-11T04:05:05.147Z,8.9
2023-01-11T04:25:06.325Z,9.1
2023-01-11T04:35:07.064Z,9.1
2023-01-11T04:45:07.999Z,9.2
2023-01-11T04:55:08.635Z,9.2
2023-01-11T05:05:09.130Z,9.3
2023-01-11T05:15:09.280Z,9.4
2023-01-11T05:25:09.764Z,9.6
2023-01-11T05:35:10.051Z,9.8
2023-01-11T05:45:10.738Z,9.8
2023-01-11T05:55:11.612Z,9.9
2023-01-11T06:05:12.563Z,9.9
2023-01-11T06:15:13.656Z,10
2023-01-11T06:25:14.097Z,10
2023-01-11T06:35:14.449Z,10
2023-01-11T06:45:15.499Z,10.1
2023-01-11T07:15:17.727Z,10.2
2023-01-11T07:55:19.831Z,10.5
2023-01-11T08:05:20.308Z,10.5
2023-01-11T08:25:21.184Z,10.6
2023-01-11T08:55:22.682Z,10.6
2023-01-11T09:05:23.109Z,10.5
2023-01-11T09:15:24.033Z,10.2
2023-01-11T09:25:24.420Z,10
2023-01-11T09:35:24.582Z,9.9
2023-01-11T10:05:27.491Z,9.8
2023-01-11T10:35:29.679Z,9.8
2023-01-11T10:45:30.297Z,9.8
2023-01-11T11:05:31.242Z,9.9
2023-01-11T11:15:31.770Z,9.8
2023-01-11T11:25:32.697Z,9.9
2023-01-11T11:35:32.870Z,9.9
2023-01-11T11:45:33.768Z,9.8
2023-01-11T11:55:34.061Z,10.2
2023-01-11T12:15:35.663Z,10.3
2023-01-11T12:25:35.769Z,10
2023-01-11T12:45:37.897Z,10.5
2023-01-11T12:55:38.382Z,10.7
2023-01-11T13:05:38.751Z,10.8
2023-01-11T13:15:39.844Z,11
2023-01-11T13:45:40.994Z,10.5
2023-01-11T13:55:41.533Z,10.3
2023-01-11T14:05:41.761Z,10.3
2023-01-11T14:45:43.990Z,10
2023-01-11T14:55:44.749Z,10
2023-01-11T15:05:45.303Z,10
2023-01-11T15:15:45.896Z,9.9
2023-01-11T15:25:46.320Z,9.8
2023-01-11T15:35:46.842Z,9.8
2023-01-11T15:45:47.491Z,9.6
2023-01-11T16:05:49.246Z,9.2
2023-01-11T16:15:50.001Z,9.1
2023-01-11T16:25:50.573Z,9
2023-01-11T16:35:51.202Z,8.9
2023-01-11T16:45:52.014Z,8.8
2023-01-11T16:55:52.432Z,8.8
2023-01-11T17:35:56.275Z,9.1
2023-01-11T17:45:56.883Z,9.1
2023-01-11T17:55:57.194Z,9.1
2023-01-11T18:15:58.081Z,9.1
2023-01-11T18:35:59.983Z,9.2
2023-01-11T18:46:00.502Z,9.2
2023-01-11T19:16:02.485Z,9
2023-01-11T19:26:03.090Z,9
2023-01-11T19:36:04.179Z,8.9
2023-01-11T19:46:04.676Z,8.8
2023-01-11T19:56:05.154Z,8.9
2023-01-11T20:06:05.332Z,8.9
2023-01-11T20:26:07.085Z,8.7
2023-01-11T20:36:07.418Z,8.7
2023-01-11T20:46:08.093Z,8.8
2023-01-11T21:06:09.520Z,9.1
2023-01-11T21:46:11.786Z,8.1
2023-01-11T22:06:12.567Z,8
2023-01-11T22:16:13.037Z,8.1
2023-01-11T22:26:13.948Z,8.2
2023-01-11T22:46:15.769Z,8.7
2023-01-11T22:56:16.493Z,8.9
2023-01-11T23:26:18.688Z,8.8
2023-01-11T23:36:19.645Z,8.7
2023-01-11T23:46:19.984Z,8.6
